Time;durP1;ratioP1;P1;durP2;ratioP2;P2;SDS_P1;SDS_P2;PMS_P1;PMS_P2;Temp;Humidity;BMP_temperature;BMP_pressure;BME280_temperature;BME280_humidity;BME280_pressure;Samples;Min_cycle;Max_cycle;Signal;HPM_P1;HPM_P2
2021/09/07 00:01:20;;;;;;;10.38;7.20;;;;;;;7.49;72.53;99803.78;5074222;28;20036;-77
2021/09/07 00:03:46;;;;;;;12.82;7.35;;;;;;;7.42;72.63;99802.44;5074299;28;20518;-76
2021/09/07 00:06:14;;;;;;;9.02;7.38;;;;;;;7.36;72.61;99802.78;5074658;28;20048;-78
2021/09/07 00:08:40;;;;;;;10.20;7.50;;;;;;;7.37;72.91;99808.94;5074562;28;20140;-78
2021/09/07 00:11:06;;;;;;;11.27;7.65;;;;;;;7.41;72.67;99819.34;5057824;28;20048;-78
2021/09/07 00:13:33;;;;;;;11.52;9.13;;;;;;;7.35;72.84;99814.38;5057898;28;20055;-77
2021/09/07 00:16:00;;;;;;;11.35;8.45;;;;;;;7.37;72.86;99831.09;5091046;28;20515;-78
2021/09/07 00:18:26;;;;;;;9.25;7.45;;;;;;;7.34;72.75;99825.13;5058027;28;20048;-78
2021/09/07 00:20:52;;;;;;;11.18;8.48;;;;;;;7.28;73.08;99826.31;5074842;28;20051;-78
2021/09/07 00:23:18;;;;;;;10.52;7.22;;;;;;;7.23;72.77;99823.06;5078298;28;20035;-78
2021/09/07 00:25:44;;;;;;;10.30;7.85;;;;;;;7.18;73.04;99825.13;5061572;28;20109;-82
2021/09/07 00:28:10;;;;;;;9.30;7.40;;;;;;;7.06;73.16;99813.41;5095537;28;20047;-80
2021/09/07 00:30:36;;;;;;;9.95;8.23;;;;;;;7.10;73.15;99819.41;5061569;28;20067;-79
2021/09/07 00:33:03;;;;;;;9.95;7.78;;;;;;;7.03;72.91;99811.81;5044795;28;20135;-76
2021/09/07 00:35:30;;;;;;;10.20;8.52;;;;;;;7.01;73.00;99816.34;5044837;28;20043;-77
2021/09/07 00:37:56;;;;;;;11.07;8.38;;;;;;;7.02;72.79;99831.34;5078306;28;20055;-78
2021/09/07 00:40:23;;;;;;;11.52;8.80;;;;;;;6.95;73.07;99829.97;5061305;28;20131;-75
2021/09/07 00:42:49;;;;;;;12.02;8.73;;;;;;;6.84;73.26;99821.75;5046142;28;20505;-77
2021/09/07 00:45:15;;;;;;;10.45;8.35;;;;;;;6.90;73.14;99832.06;5046723;28;20483;-77
2021/09/07 00:47:41;;;;;;;12.00;8.90;;;;;;;6.81;73.37;99827.28;5077918;28;20136;-76
2021/09/07 00:50:07;;;;;;;13.20;8.65;;;;;;;6.81;73.42;99837.91;5062600;28;20044;-76
2021/09/07 00:52:34;;;;;;;15.40;9.05;;;;;;;6.79;73.49;99830.00;5045523;28;20049;-76
2021/09/07 00:55:00;;;;;;;12.65;9.43;;;;;;;6.74;73.38;99826.75;5061216;28;20043;-76
2021/09/07 00:57:26;;;;;;;12.38;9.13;;;;;;;6.71;73.50;99831.38;5077504;28;20063;-76
2021/09/07 00:59:53;;;;;;;11.50;8.32;;;;;;;6.70;73.53;99829.69;5028338;28;20051;-76
2021/09/07 01:02:20;;;;;;;11.13;9.25;;;;;;;6.67;73.78;99824.53;5061354;28;20044;-76
2021/09/07 01:04:46;;;;;;;12.73;10.02;;;;;;;6.61;73.92;99835.50;5060820;28;20414;-77
2021/09/07 01:07:12;;;;;;;12.23;9.93;;;;;;;6.56;73.93;99838.41;5078428;28;20040;-80
2021/09/07 01:09:39;;;;;;;14.90;9.52;;;;;;;6.52;74.37;99829.75;5033032;28;20040;-81
2021/09/07 01:12:06;;;;;;;13.82;10.40;;;;;;;6.59;74.06;99837.38;5084915;28;20127;-81
2021/09/07 01:14:34;;;;;;;14.07;10.52;;;;;;;6.52;73.95;99829.75;5051445;28;20097;-76
2021/09/07 01:17:01;;;;;;;14.35;9.75;;;;;;;6.52;74.24;99842.19;5100513;28;20055;-75
2021/09/07 01:19:29;;;;;;;14.05;10.45;;;;;;;6.47;74.27;99850.41;5082890;28;20423;-75
2021/09/07 01:21:55;;;;;;;14.93;10.32;;;;;;;6.35;74.93;99845.75;5050119;28;20075;-75
2021/09/07 01:24:22;;;;;;;14.88;9.95;;;;;;;6.38;74.95;99834.97;5097382;28;20532;-75
2021/09/07 01:26:49;;;;;;;12.65;9.25;;;;;;;6.41;74.92;99840.13;5062884;28;20129;-75
2021/09/07 01:29:15;;;;;;;13.82;10.10;;;;;;;6.43;74.68;99840.91;5061469;28;20174;-76
2021/09/07 01:31:41;;;;;;;39.97;13.50;;;;;;;6.54;74.84;99853.56;5060956;28;20046;-75
2021/09/07 01:34:08;;;;;;;33.05;9.82;;;;;;;6.48;74.55;99838.84;5092544;28;20114;-75
2021/09/07 01:36:34;;;;;;;14.85;9.55;;;;;;;6.56;74.50;99843.72;5077074;28;20127;-76
2021/09/07 01:39:00;;;;;;;74.40;9.93;;;;;;;6.60;74.21;99857.69;5093514;28;20070;-75
2021/09/07 01:41:26;;;;;;;27.85;10.32;;;;;;;6.54;74.55;99846.47;5059813;28;20043;-76
2021/09/07 01:43:52;;;;;;;22.85;9.50;;;;;;;6.48;74.29;99846.81;5076766;28;20051;-75
2021/09/07 01:46:18;;;;;;;28.35;9.75;;;;;;;6.47;74.30;99847.75;5060082;28;20056;-75
2021/09/07 01:48:44;;;;;;;15.02;9.73;;;;;;;6.38;74.25;99837.63;5093308;28;20517;-76
2021/09/07 01:51:10;;;;;;;25.08;9.90;;;;;;;6.28;74.64;99845.25;5043150;28;20040;-76
2021/09/07 01:53:36;;;;;;;14.98;9.68;;;;;;;6.30;74.46;99853.13;5026618;28;20184;-75
2021/09/07 01:56:04;;;;;;;13.30;9.10;;;;;;;6.43;74.72;99866.56;5076718;28;20055;-76
2021/09/07 01:58:30;;;;;;;20.00;8.75;;;;;;;6.47;74.59;99870.78;5026785;28;20190;-76
2021/09/07 02:00:57;;;;;;;13.48;8.95;;;;;;;6.53;74.64;99873.09;5059855;28;20043;-76
2021/09/07 02:03:24;;;;;;;11.98;8.23;;;;;;;6.57;74.63;99878.16;5076211;28;20502;-76
2021/09/07 02:05:51;;;;;;;11.20;7.57;;;;;;;6.64;74.46;99877.81;5076445;28;20051;-76
2021/09/07 02:08:17;;;;;;;14.00;7.97;;;;;;;6.69;74.40;99881.94;5059218;28;20044;-77
2021/09/07 02:10:43;;;;;;;10.38;7.75;;;;;;;6.69;74.20;99878.41;5076160;28;20075;-76
2021/09/07 02:13:09;;;;;;;10.27;7.65;;;;;;;6.71;73.72;99881.88;5026266;28;20120;-78
2021/09/07 02:15:35;;;;;;;10.15;7.20;;;;;;;6.69;73.65;99871.31;5059618;28;20039;-77
2021/09/07 02:18:02;;;;;;;11.60;8.05;;;;;;;6.73;73.55;99872.00;5059411;28;20529;-77
2021/09/07 02:20:29;;;;;;;8.57;6.72;;;;;;;6.68;72.97;99864.28;5043244;28;20089;-77
2021/09/07 02:22:57;;;;;;;9.60;6.90;;;;;;;6.76;72.96;99887.75;5059892;28;20050;-77
2021/09/07 02:25:24;;;;;;;9.88;7.20;;;;;;;6.82;73.07;99884.78;5076059;28;20048;-78
2021/09/07 02:27:51;;;;;;;9.05;6.95;;;;;;;6.86;73.03;99883.66;5076066;28;20052;-77
2021/09/07 02:30:20;;;;;;;9.85;7.00;;;;;;;6.90;72.61;99885.19;5075890;28;20448;-79
2021/09/07 02:32:46;;;;;;;11.35;7.15;;;;;;;6.96;72.53;99890.19;5058733;28;20036;-79
2021/09/07 02:35:12;;;;;;;9.95;6.75;;;;;;;6.98;72.35;99892.75;5049578;28;20047;-77
2021/09/07 02:37:39;;;;;;;7.63;6.80;;;;;;;6.98;72.36;99887.44;5075264;28;20483;-80
2021/09/07 02:40:06;;;;;;;10.23;6.57;;;;;;;7.05;72.07;99894.97;5025959;28;20036;-77
2021/09/07 02:42:34;;;;;;;20.98;6.53;;;;;;;7.12;71.80;99894.63;5075096;28;20039;-77
2021/09/07 02:45:00;;;;;;;11.63;6.93;;;;;;;7.14;71.41;99892.72;5058310;28;20117;-75
2021/09/07 02:47:28;;;;;;;10.18;6.05;;;;;;;7.13;71.19;99888.34;5075344;28;20036;-76
2021/09/07 02:49:54;;;;;;;11.43;6.65;;;;;;;7.15;70.88;99884.69;5092435;28;20039;-77
2021/09/07 02:52:22;;;;;;;11.15;6.35;;;;;;;7.26;70.64;99892.91;5042755;28;20565;-77
2021/09/07 02:54:50;;;;;;;7.68;5.45;;;;;;;7.17;70.28;99873.94;5058914;28;20043;-78
2021/09/07 02:57:16;;;;;;;9.02;5.80;;;;;;;7.37;70.56;99902.03;5075510;28;20063;-77
2021/09/07 02:59:42;;;;;;;10.65;5.20;;;;;;;7.38;70.10;99898.44;5059088;28;20380;-75
2021/09/07 03:02:09;;;;;;;14.55;5.60;;;;;;;7.36;69.95;99887.88;5092837;28;20092;-76
2021/09/07 03:04:36;;;;;;;12.07;5.32;;;;;;;7.56;69.84;99910.69;5075663;28;20043;-76
2021/09/07 03:07:05;;;;;;;10.88;4.30;;;;;;;7.50;69.34;99889.75;5075767;28;20161;-75
2021/09/07 03:09:31;;;;;;;9.43;4.60;;;;;;;7.55;68.86;99896.50;5075497;28;20139;-76
2021/09/07 03:11:57;;;;;;;18.45;5.70;;;;;;;7.70;68.93;99907.19;5068428;28;20051;-79
2021/09/07 03:14:24;;;;;;;6.68;4.80;;;;;;;7.78;69.02;99900.47;5043063;28;20064;-76
2021/09/07 03:16:50;;;;;;;9.52;6.05;;;;;;;7.91;68.64;99900.59;5076421;28;20079;-75
2021/09/07 03:19:17;;;;;;;12.93;5.20;;;;;;;7.90;68.14;99893.56;5075213;28;20341;-75
2021/09/07 03:21:44;;;;;;;5.80;4.45;;;;;;;8.07;68.01;99911.16;5075352;28;20046;-76
2021/09/07 03:24:11;;;;;;;13.73;6.05;;;;;;;8.16;67.89;99909.75;5059694;28;20574;-76
2021/09/07 03:26:39;;;;;;;9.57;6.00;;;;;;;8.31;67.36;99916.78;5060178;28;20407;-75
2021/09/07 03:29:05;;;;;;;15.32;6.00;;;;;;;8.32;67.21;99894.56;5042907;28;20123;-77
2021/09/07 03:31:35;;;;;;;17.65;6.03;;;;;;;8.54;66.81;99914.53;5076755;28;20135;-76
2021/09/07 03:34:00;;;;;;;5.32;4.70;;;;;;;8.61;66.24;99914.06;5058348;28;20059;-76
2021/09/07 03:36:26;;;;;;;7.70;4.07;;;;;;;8.63;66.24;99906.00;5091049;28;20048;-74
2021/09/07 03:38:54;;;;;;;6.45;4.63;;;;;;;8.69;65.96;99903.81;5091251;28;20384;-77
2021/09/07 03:41:20;;;;;;;9.82;5.10;;;;;;;8.80;66.15;99907.56;5090600;28;20040;-76
2021/09/07 03:43:47;;;;;;;8.10;3.92;;;;;;;8.85;65.73;99909.00;5092399;28;20044;-76
2021/09/07 03:46:15;;;;;;;7.60;4.38;;;;;;;8.89;65.46;99897.19;5074372;28;20149;-78
2021/09/07 03:48:41;;;;;;;17.88;7.80;;;;;;;9.12;65.42;99908.19;5073828;28;20048;-76
2021/09/07 03:51:08;;;;;;;9.57;5.45;;;;;;;9.24;64.78;99912.72;5090862;28;20413;-77
2021/09/07 03:53:34;;;;;;;8.40;4.80;;;;;;;9.40;64.35;99910.75;5074342;28;20044;-77
2021/09/07 03:56:01;;;;;;;6.68;4.47;;;;;;;9.50;64.23;99894.97;5075288;28;20055;-77
2021/09/07 03:58:29;;;;;;;10.27;4.20;;;;;;;9.76;63.90;99901.22;5095292;28;20067;-77
2021/09/07 04:00:55;;;;;;;8.48;3.95;;;;;;;9.88;63.63;99884.38;5046361;28;20043;-77
2021/09/07 04:03:21;;;;;;;4.93;4.30;;;;;;;10.05;62.69;99896.59;5095569;28;20079;-77
2021/09/07 04:05:49;;;;;;;6.70;4.55;;;;;;;9.85;62.54;99892.59;5078417;28;20043;-77
2021/09/07 04:08:16;;;;;;;5.60;3.97;;;;;;;9.91;62.55;99894.84;5079106;28;20032;-76
2021/09/07 04:10:45;;;;;;;17.10;5.10;;;;;;;10.08;62.43;99900.84;5062946;28;20132;-77
2021/09/07 04:13:11;;;;;;;8.10;4.28;;;;;;;10.08;62.00;99884.81;5078702;28;20142;-77
2021/09/07 04:15:37;;;;;;;7.60;4.88;;;;;;;10.29;61.59;99904.72;5078851;28;20059;-76
2021/09/07 04:18:04;;;;;;;8.50;4.88;;;;;;;10.44;61.27;99895.63;5061851;28;20507;-77
2021/09/07 04:20:30;;;;;;;7.80;4.28;;;;;;;10.57;61.36;99900.97;5078217;28;20046;-76
2021/09/07 04:22:57;;;;;;;13.32;4.88;;;;;;;10.57;60.98;99897.44;5062011;28;20135;-76
2021/09/07 04:25:23;;;;;;;3.13;2.72;;;;;;;10.36;60.36;99889.97;5045200;28;20131;-77
2021/09/07 04:27:49;;;;;;;2.88;2.35;;;;;;;10.48;59.61;99898.09;5077903;28;20126;-76
2021/09/07 04:30:14;;;;;;;3.65;2.75;;;;;;;10.72;59.74;99906.16;5059867;28;20172;-77
2021/09/07 04:32:40;;;;;;;9.60;3.70;;;;;;;10.87;59.60;99889.91;5027065;28;20044;-77
2021/09/07 04:35:07;;;;;;;9.32;3.90;;;;;;;11.13;58.72;99903.16;5075475;28;20146;-77
2021/09/07 04:37:33;;;;;;;4.75;3.65;;;;;;;11.25;58.50;99912.16;5092693;28;20074;-77
2021/09/07 04:39:59;;;;;;;6.32;3.80;;;;;;;11.36;58.41;99905.03;5076385;28;20079;-77
2021/09/07 04:42:24;;;;;;;5.40;4.32;;;;;;;11.46;57.48;99902.50;5076104;28;20050;-77
2021/09/07 04:44:52;;;;;;;11.55;4.55;;;;;;;11.51;57.39;99902.16;5076251;28;20495;-76
2021/09/07 04:47:18;;;;;;;4.72;3.22;;;;;;;11.55;56.98;99896.47;5059542;28;20495;-77
2021/09/07 04:49:45;;;;;;;8.90;3.53;;;;;;;11.75;57.14;99912.84;5044572;28;20040;-77
2021/09/07 04:52:11;;;;;;;13.30;3.67;;;;;;;11.83;56.95;99900.59;5077922;28;20036;-76
2021/09/07 04:54:37;;;;;;;7.50;3.70;;;;;;;12.00;56.12;99906.50;5060687;28;20066;-77
2021/09/07 04:57:03;;;;;;;7.68;4.30;;;;;;;12.03;56.34;99916.97;5077488;28;20040;-77
2021/09/07 04:59:29;;;;;;;11.35;4.10;;;;;;;11.91;56.20;99910.75;5044477;28;20044;-77
2021/09/07 05:01:55;;;;;;;11.20;4.13;;;;;;;11.89;56.76;99916.22;5060572;28;20527;-76
2021/09/07 05:04:21;;;;;;;9.32;4.22;;;;;;;11.83;56.77;99903.28;5077077;28;20036;-77
2021/09/07 05:06:47;;;;;;;16.02;5.15;;;;;;;11.89;56.60;99908.19;5077484;28;20067;-77
2021/09/07 05:09:13;;;;;;;11.70;5.32;;;;;;;11.90;56.72;99912.56;5044286;28;20523;-77
2021/09/07 05:11:39;;;;;;;7.22;5.13;;;;;;;11.86;56.43;99916.44;5044192;28;20044;-76
2021/09/07 05:14:06;;;;;;;14.88;5.47;;;;;;;11.96;56.38;99913.94;5044155;28;20415;-76
2021/09/07 05:16:32;;;;;;;11.00;5.60;;;;;;;11.92;56.70;99904.41;5077348;28;20058;-78
2021/09/07 05:18:58;;;;;;;11.90;5.97;;;;;;;12.00;56.62;99919.88;5060498;28;20040;-76
2021/09/07 05:21:24;;;;;;;6.80;5.38;;;;;;;12.07;56.90;99916.66;5077001;28;20041;-77
2021/09/07 05:23:50;;;;;;;9.65;5.10;;;;;;;12.19;56.93;99920.19;5076636;28;20439;-76
2021/09/07 05:26:16;;;;;;;10.20;4.65;;;;;;;12.24;56.40;99919.84;5076606;28;20530;-75
2021/09/07 05:28:42;;;;;;;9.50;5.07;;;;;;;12.21;56.26;99907.53;5076797;28;20095;-76
2021/09/07 05:31:08;;;;;;;8.68;5.40;;;;;;;12.38;55.96;99917.78;5076752;28;20101;-77
2021/09/07 05:33:33;;;;;;;10.98;5.38;;;;;;;12.51;56.29;99914.13;5043090;28;20447;-76
2021/09/07 05:35:59;;;;;;;8.88;5.00;;;;;;;12.45;56.17;99912.81;5076709;28;20410;-76
2021/09/07 05:38:25;;;;;;;7.63;5.43;;;;;;;12.62;55.49;99903.41;5076519;28;20039;-76
2021/09/07 05:40:53;;;;;;;9.32;4.63;;;;;;;12.62;55.77;99908.78;5043251;28;20563;-76
2021/09/07 05:43:19;;;;;;;8.90;5.32;;;;;;;12.71;55.75;99910.72;5076686;28;20069;-76
2021/09/07 05:45:45;;;;;;;10.38;4.80;;;;;;;12.76;55.50;99913.06;5093173;28;20628;-76
2021/09/07 05:48:11;;;;;;;8.60;5.15;;;;;;;12.62;55.82;99914.13;5094095;28;20051;-78
2021/09/07 05:50:37;;;;;;;7.90;4.78;;;;;;;12.83;55.96;99917.81;5060098;28;20044;-76
2021/09/07 05:53:03;;;;;;;18.15;4.65;;;;;;;13.02;55.13;99921.69;5059794;28;20135;-76
2021/09/07 05:55:29;;;;;;;7.38;4.63;;;;;;;13.09;54.74;99922.91;5076411;28;20044;-76
2021/09/07 05:57:55;;;;;;;7.97;4.60;;;;;;;13.20;54.59;99925.56;5042799;28;20083;-76
2021/09/07 06:00:21;;;;;;;9.57;4.70;;;;;;;13.28;54.71;99920.44;5092919;28;20098;-76
2021/09/07 06:02:49;;;;;;;6.28;4.50;;;;;;;13.50;54.65;99926.72;5075969;28;20051;-76
2021/09/07 06:05:15;;;;;;;8.18;4.50;;;;;;;13.70;54.11;99923.22;5043462;28;20040;-77
2021/09/07 06:07:41;;;;;;;8.43;4.72;;;;;;;13.79;53.73;99914.38;5093096;28;20495;-75
2021/09/07 06:10:07;;;;;;;8.40;4.30;;;;;;;13.88;53.62;99909.22;5043341;28;20040;-76
2021/09/07 06:12:33;;;;;;;6.22;3.80;;;;;;;13.97;52.78;99924.56;5075722;28;20044;-76
2021/09/07 06:14:59;;;;;;;5.55;3.90;;;;;;;13.66;52.48;99905.66;5058728;28;20441;-77
2021/09/07 06:17:26;;;;;;;5.15;4.25;;;;;;;13.61;53.09;99921.28;5091921;28;20090;-77
2021/09/07 06:19:52;;;;;;;8.50;4.05;;;;;;;13.63;53.60;99907.75;5092040;28;20044;-76
2021/09/07 06:22:17;;;;;;;4.88;4.03;;;;;;;13.92;52.90;99911.53;5042553;28;20067;-77
2021/09/07 06:24:43;;;;;;;7.53;4.00;;;;;;;14.09;52.50;99913.63;5076013;28;20071;-77
2021/09/07 06:27:09;;;;;;;5.88;3.90;;;;;;;13.78;52.23;99904.63;5042298;28;20100;-76
2021/09/07 06:29:35;;;;;;;13.20;4.40;;;;;;;14.13;52.16;99907.97;5092188;28;20205;-76
2021/09/07 06:32:01;;;;;;;7.82;4.38;;;;;;;14.32;51.36;99900.03;5042901;28;20082;-76
2021/09/07 06:34:27;;;;;;;5.97;3.85;;;;;;;14.52;50.77;99890.28;5058809;28;20093;-78
2021/09/07 06:36:54;;;;;;;8.00;3.85;;;;;;;14.47;49.63;99904.06;5041875;28;20091;-75
2021/09/07 06:39:20;;;;;;;9.82;4.13;;;;;;;14.51;49.76;99907.38;5058646;28;20075;-76
2021/09/07 06:41:46;;;;;;;5.07;3.38;;;;;;;14.54;48.72;99904.41;5041844;28;20046;-76
2021/09/07 06:44:12;;;;;;;4.63;3.78;;;;;;;14.26;48.90;99887.13;5058532;28;20056;-77
2021/09/07 06:46:38;;;;;;;25.38;4.32;;;;;;;14.23;48.64;99904.38;5058767;28;20044;-76
2021/09/07 06:49:04;;;;;;;8.10;3.67;;;;;;;14.18;48.76;99890.47;5075601;28;20372;-76
2021/09/07 06:51:31;;;;;;;5.60;3.63;;;;;;;14.26;48.22;99893.34;5058810;28;20044;-77
2021/09/07 06:53:56;;;;;;;11.15;3.67;;;;;;;14.32;48.35;99908.94;5092263;28;20071;-77
2021/09/07 06:56:22;;;;;;;3.80;3.10;;;;;;;14.46;47.37;99888.91;5075083;28;20071;-75
2021/09/07 06:58:48;;;;;;;5.45;3.35;;;;;;;14.50;47.51;99895.78;5076897;28;20056;-76
2021/09/07 07:01:14;;;;;;;5.50;3.13;;;;;;;14.70;46.94;99895.84;5053150;28;20037;-77
2021/09/07 07:03:40;;;;;;;3.33;2.97;;;;;;;14.66;46.36;99892.56;5071401;28;20051;-77
2021/09/07 07:06:06;;;;;;;5.63;2.90;;;;;;;15.03;46.27;99892.00;5072657;28;20079;-76
2021/09/07 07:08:32;;;;;;;3.95;3.00;;;;;;;15.11;44.63;99888.63;5071736;28;20143;-75
2021/09/07 07:10:58;;;;;;;7.82;3.35;;;;;;;14.97;44.64;99887.16;5088272;28;20083;-78
2021/09/07 07:13:24;;;;;;;4.70;3.15;;;;;;;15.15;44.35;99880.09;5038370;28;20044;-79
2021/09/07 07:15:50;;;;;;;7.45;3.22;;;;;;;15.55;45.17;99871.09;5046294;28;20047;-79
2021/09/07 07:18:16;;;;;;;6.80;3.42;;;;;;;16.06;44.94;99859.16;5055016;28;20104;-79
2021/09/07 07:20:42;;;;;;;5.05;3.50;;;;;;;16.58;43.48;99870.34;5057758;28;20044;-79
2021/09/07 07:23:08;;;;;;;5.95;3.80;;;;;;;16.92;42.24;99859.81;5091877;28;20126;-78
2021/09/07 07:25:34;;;;;;;7.85;3.15;;;;;;;17.16;41.44;99859.28;5074784;28;20048;-80
2021/09/07 07:28:00;;;;;;;6.75;3.03;;;;;;;17.02;39.90;99854.38;5026944;28;20068;-79
2021/09/07 07:30:26;;;;;;;5.85;2.70;;;;;;;16.62;40.05;99860.09;5021155;28;20119;-80
2021/09/07 07:32:54;;;;;;;7.55;5.22;;;;;;;16.70;41.00;99835.94;5054802;28;20090;-80
2021/09/07 07:35:20;;;;;;;8.75;3.05;;;;;;;17.08;40.51;99845.69;5071010;28;20542;-82
2021/09/07 07:37:46;;;;;;;3.35;2.20;;;;;;;17.55;39.42;99831.94;5038019;28;20055;-85
2021/09/07 07:40:12;;;;;;;5.57;2.60;;;;;;;17.98;39.33;99832.13;5022532;28;20044;-80
2021/09/07 07:42:38;;;;;;;6.38;2.67;;;;;;;18.31;38.33;99822.38;5055320;28;20044;-85
2021/09/07 07:45:05;;;;;;;4.03;2.72;;;;;;;18.61;36.81;99824.53;5055200;28;20040;-77
2021/09/07 07:47:30;;;;;;;6.05;2.88;;;;;;;18.86;36.43;99822.81;5037210;28;20048;-81
2021/09/07 07:49:57;;;;;;;4.22;3.17;;;;;;;19.17;35.63;99824.94;5037596;28;20049;-78
2021/09/07 07:52:23;;;;;;;3.33;2.92;;;;;;;19.09;35.14;99817.63;5072102;28;20103;-79
2021/09/07 07:54:50;;;;;;;6.00;3.50;;;;;;;18.85;35.35;99823.84;5037580;28;20090;-76
2021/09/07 07:57:18;;;;;;;4.45;3.05;;;;;;;18.80;35.47;99812.63;5070701;28;20064;-76
2021/09/07 07:59:45;;;;;;;6.78;3.05;;;;;;;18.61;35.52;99811.00;5054254;28;20070;-80
2021/09/07 08:02:11;;;;;;;5.43;3.15;;;;;;;18.44;35.14;99822.78;5037520;28;20083;-85
2021/09/07 08:04:37;;;;;;;3.03;2.22;;;;;;;18.12;34.41;99831.56;5054427;28;20068;-77
2021/09/07 08:07:03;;;;;;;2.63;2.20;;;;;;;17.50;34.07;99826.16;5052223;28;20040;-76
2021/09/07 08:09:31;;;;;;;2.95;2.20;;;;;;;17.16;34.79;99818.75;5076622;28;20040;-75
2021/09/07 08:11:58;;;;;;;2.78;2.47;;;;;;;17.27;35.87;99811.44;5069858;28;20048;-76
2021/09/07 08:14:25;;;;;;;2.95;2.20;;;;;;;17.43;35.54;99800.75;5054297;28;20491;-76
2021/09/07 08:16:52;;;;;;;4.88;2.30;;;;;;;17.72;35.25;99806.75;5053921;28;20059;-76
2021/09/07 08:19:18;;;;;;;2.22;2.03;;;;;;;17.84;34.65;99793.00;5070186;28;20086;-75
2021/09/07 08:21:44;;;;;;;3.95;1.92;;;;;;;18.15;35.00;99787.94;5036780;28;20114;-76
2021/09/07 08:24:09;;;;;;;2.67;1.88;;;;;;;18.50;33.90;99795.03;5053653;28;20142;-77
2021/09/07 08:26:36;;;;;;;3.00;1.77;;;;;;;18.75;33.75;99792.47;5044008;28;20487;-78
2021/09/07 08:29:02;;;;;;;2.80;1.98;;;;;;;18.92;33.78;99786.09;5024172;28;20052;-79
2021/09/07 08:31:28;;;;;;;1.60;1.50;;;;;;;19.03;32.21;99787.63;5073429;28;20051;-82
2021/09/07 08:33:54;;;;;;;2.78;1.50;;;;;;;19.10;32.29;99789.50;5064650;28;20153;-78
2021/09/07 08:36:20;;;;;;;2.50;1.63;;;;;;;19.26;31.42;99786.00;5053738;28;20412;-77
2021/09/07 08:38:45;;;;;;;1.58;1.48;;;;;;;19.69;31.35;99785.84;5070464;28;20055;-76
2021/09/07 08:41:19;;;;;;;3.20;1.88;;;;;;;19.92;30.50;99781.41;5053174;28;20399;-74
2021/09/07 08:43:49;;;;;;;2.65;1.98;;;;;;;20.29;30.01;99782.69;5040988;28;20117;-75
2021/09/07 08:46:16;;;;;;;3.17;2.00;;;;;;;20.61;29.88;99777.16;5057651;28;20143;-75
2021/09/07 08:48:42;;;;;;;4.82;2.15;;;;;;;20.53;29.27;99779.91;5073848;28;20419;-81
2021/09/07 08:51:08;;;;;;;2.80;2.30;;;;;;;20.52;30.55;99780.09;5073660;28;20036;-75
2021/09/07 08:53:34;;;;;;;3.80;1.70;;;;;;;20.19;30.79;99771.16;5040145;28;20419;-76
2021/09/07 08:56:00;;;;;;;2.17;1.65;;;;;;;20.16;31.43;99782.38;5056935;28;20044;-78
2021/09/07 08:58:26;;;;;;;3.13;1.80;;;;;;;20.33;31.12;99778.59;5040394;28;20507;-76
2021/09/07 09:00:52;;;;;;;2.70;2.00;;;;;;;20.25;30.12;99781.34;5073648;28;20052;-77
2021/09/07 09:03:18;;;;;;;3.40;1.75;;;;;;;19.81;30.04;99789.91;5056751;28;20057;-77
2021/09/07 09:05:46;;;;;;;3.65;1.40;;;;;;;18.97;31.21;99781.03;5073560;28;20040;-76
2021/09/07 09:08:15;;;;;;;3.47;1.70;;;;;;;18.98;31.47;99774.59;5073959;28;20089;-75
2021/09/07 09:10:44;;;;;;;2.67;1.50;;;;;;;18.99;32.33;99768.16;5039683;28;20049;-77
2021/09/07 09:13:18;;;;;;;1.52;1.40;;;;;;;18.96;32.53;99767.66;5073607;28;20048;-76
2021/09/07 09:16:16;;;;;;;6.93;1.50;;;;;;;18.96;32.53;99775.78;5041240;28;20044;-76
2021/09/07 09:18:43;;;;;;;3.90;1.75;;;;;;;18.91;32.01;99787.09;5045621;28;20127;-77
2021/09/07 09:21:27;;;;;;;2.42;1.75;;;;;;;18.74;30.96;99780.81;5056687;28;20049;-76
2021/09/07 09:24:13;;;;;;;3.25;1.15;;;;;;;18.15;31.30;99777.97;5056958;28;20113;-75
2021/09/07 09:27:15;;;;;;;1.50;1.20;;;;;;;18.06;30.51;99770.84;5064133;28;20040;-76
2021/09/07 09:29:41;;;;;;;1.30;1.20;;;;;;;18.36;30.46;99774.03;5055390;28;20040;-74
2021/09/07 09:32:11;;;;;;;4.43;1.35;;;;;;;18.08;30.65;99776.91;5070447;28;20066;-76
2021/09/07 09:34:38;;;;;;;1.95;1.50;;;;;;;17.88;30.98;99767.34;5043454;28;20032;-74
2021/09/07 09:37:14;;;;;;;1.42;1.08;;;;;;;17.78;31.23;99763.88;5058050;28;20044;-76
2021/09/07 09:39:41;;;;;;;5.80;2.38;;;;;;;17.93;31.21;99762.28;5059785;28;20502;-75
2021/09/07 09:42:08;;;;;;;1.50;1.35;;;;;;;18.15;31.70;99761.75;5059883;28;20052;-75
2021/09/07 09:44:34;;;;;;;2.97;1.70;;;;;;;18.39;31.19;99761.03;5059808;28;20044;-77
2021/09/07 09:47:00;;;;;;;4.43;2.00;;;;;;;18.57;30.92;99769.03;5076354;28;20130;-75
2021/09/07 09:49:27;;;;;;;2.40;1.55;;;;;;;18.49;30.24;99760.88;5059751;28;20046;-75
2021/09/07 09:52:13;;;;;;;2.35;1.48;;;;;;;18.44;30.22;99747.84;5076446;28;20055;-75
2021/09/07 09:54:40;;;;;;;6.50;1.90;;;;;;;18.83;30.35;99758.13;5074871;28;20079;-74
2021/09/07 09:57:06;;;;;;;4.68;2.25;;;;;;;19.40;29.63;99749.22;5042949;28;20040;-75
2021/09/07 09:59:32;;;;;;;7.65;2.05;;;;;;;19.97;29.33;99740.19;5094019;28;20088;-76
2021/09/07 10:01:58;;;;;;;6.25;2.20;;;;;;;20.55;29.01;99747.16;5076030;28;20055;-75
2021/09/07 10:04:26;;;;;;;3.63;2.08;;;;;;;21.17;28.71;99740.81;5059790;28;20449;-75
2021/09/07 10:06:52;;;;;;;4.63;1.75;;;;;;;21.45;28.03;99724.81;5043045;28;20074;-75
2021/09/07 10:09:19;;;;;;;1.00;0.90;;;;;;;21.33;27.28;99732.56;5093050;28;20097;-77
2021/09/07 10:11:48;;;;;;;1.15;1.00;;;;;;;21.28;26.64;99740.38;5058992;28;20040;-74
2021/09/07 10:14:16;;;;;;;;;;;;;;;20.72;27.09;99734.31;5042939;28;20042;-75
2021/09/07 10:16:48;;;;;;;1.67;1.00;;;;;;;20.53;27.33;99733.72;5092898;28;19916;-76
2021/09/07 10:19:40;;;;;;;0.88;0.88;;;;;;;20.03;27.62;99740.34;5092895;28;20134;-75
2021/09/07 10:24:52;;;;;;;3.28;1.08;;;;;;;19.91;28.05;99741.75;5092828;28;20180;-77
2021/09/07 10:27:17;;;;;;;2.17;1.10;;;;;;;19.77;27.50;99745.16;5058875;28;20044;-75
2021/09/07 10:29:45;;;;;;;4.80;2.50;;;;;;;19.40;27.82;99750.06;5092658;28;20047;-75
2021/09/07 10:32:40;;;;;;;1.60;1.50;;;;;;;18.85;28.75;99744.44;5093806;28;20044;-75
2021/09/07 10:35:12;;;;;;;6.20;1.67;;;;;;;18.57;29.05;99747.38;5074786;28;20079;-76
2021/09/07 10:38:10;;;;;;;1.30;1.20;;;;;;;18.24;29.35;99759.06;5041994;28;20069;-76
2021/09/07 10:40:49;;;;;;;1.10;1.00;;;;;;;18.61;28.71;99748.72;5090353;28;20035;-74
2021/09/07 10:43:48;;;;;;;1.40;1.30;;;;;;;18.68;29.41;99749.75;5075207;28;20039;-76
2021/09/07 10:46:15;;;;;;;2.88;1.10;;;;;;;18.59;29.29;99756.19;5092514;28;20044;-75
2021/09/07 10:48:40;;;;;;;0.90;0.90;;;;;;;18.04;29.46;99767.44;5057911;28;20040;-75
2021/09/07 10:51:06;;;;;;;1.30;1.20;;;;;;;17.66;30.08;99747.88;5075255;28;20040;-76
2021/09/07 10:53:32;;;;;;;2.25;1.50;;;;;;;17.80;30.03;99749.19;5025028;28;20066;-75
2021/09/07 10:56:26;;;;;;;1.33;1.20;;;;;;;17.61;30.36;99757.50;5057559;28;20039;-77
2021/09/07 10:58:52;;;;;;;3.63;1.13;;;;;;;17.13;30.70;99766.88;5091681;28;20518;-75
2021/09/07 11:01:30;;;;;;;1.30;1.20;;;;;;;16.90;31.02;99750.28;5041996;28;20055;-75
2021/09/07 11:04:33;;;;;;;3.03;1.02;;;;;;;16.71;31.62;99762.03;5058338;28;20044;-75
2021/09/07 11:07:00;;;;;;;7.22;1.20;;;;;;;16.75;31.70;99764.31;5074979;28;20032;-76
2021/09/07 11:09:51;;;;;;;3.38;1.20;;;;;;;17.35;31.98;99752.91;5091946;28;20125;-75
2021/09/07 11:12:33;;;;;;;3.42;1.50;;;;;;;18.08;30.27;99741.75;5040009;28;20127;-75
2021/09/07 11:15:10;;;;;;;1.25;1.10;;;;;;;18.00;29.88;99752.53;5054331;28;20047;-76
2021/09/07 11:17:48;;;;;;;3.65;2.63;;;;;;;17.71;29.98;99750.97;5022368;28;20075;-75
2021/09/07 11:20:14;;;;;;;2.85;1.50;;;;;;;17.62;30.37;99753.78;5053074;28;20047;-76
2021/09/07 11:22:40;;;;;;;1.98;1.30;;;;;;;17.37;30.44;99747.31;5038354;28;20071;-76
2021/09/07 11:25:09;;;;;;;2.13;1.33;;;;;;;17.64;30.45;99749.91;5038264;28;20431;-75
2021/09/07 11:28:01;;;;;;;3.15;1.40;;;;;;;17.68;30.45;99759.41;5038188;28;20071;-74
2021/09/07 11:30:39;;;;;;;2.65;1.10;;;;;;;17.84;29.47;99749.75;5054874;28;20045;-76
2021/09/07 11:33:23;;;;;;;1.00;0.90;;;;;;;17.35;29.68;99750.19;5071153;28;20067;-74
2021/09/07 11:35:53;;;;;;;1.50;0.90;;;;;;;17.32;30.09;99750.50;5038046;28;20491;-75
2021/09/07 11:38:24;;;;;;;1.13;1.02;;;;;;;17.40;30.14;99749.72;5054553;28;20491;-75
2021/09/07 11:40:54;;;;;;;2.17;1.00;;;;;;;17.22;30.35;99744.31;5054823;28;20125;-75